Meteo4 di Emilio Bellavite Il primo osservatorio Meteo di Verona  
 
giovedì 29 giugno 2017
 
 
dati in tempo reale
Di seguito i dati in tempo reale delle stazioni on line, suddivise per regione, della rete di Meteo4. Cliccando sul link della stazione, ove presente, si accederà al sito web personale.
Stazioni online
Regione -
Località Giorno Ora Temp. Umid. Relat. Dew Point Press. Atm. Velocità Vento Direz. Vento Precip. Temp.
Min
Temp.
Max
 
 
Regione ABRUZZO
Località Giorno Ora Temp. Umid. Relat. Dew Point Press. Atm. Velocità Vento Direz. Vento Precip. Temp.
Min
Temp.
Max
San Salvo3 (CH) 29/06/17 16.10 33.4 °C 29 % 12.9 °C 1003.5 hPa 0.0 Km/h S 0.0 mm  24.9 °C 33.9 °C
Vasto (CH) 29/06/17 16.10 32.0 °C 10 % -3.4 °C 1006.0 hPa 3.5 Km/h N 0.0 mm  26.6 °C 34.4 °C
 
 
Regione BASILICATA
Località Giorno Ora Temp. Umid. Relat. Dew Point Press. Atm. Velocità Vento Direz. Vento Precip. Temp.
Min
Temp.
Max
Miglionico (MT) 29/06/17 16.00 33.3 °C 26 % 11.2 °C 1006.2 hPa 16.1 Km/h SW 0.0 mm  22.6 °C 33.7 °C
 
 
Regione CALABRIA
Località Giorno Ora Temp. Umid. Relat. Dew Point Press. Atm. Velocità Vento Direz. Vento Precip. Temp.
Min
Temp.
Max
Bisignano (CS) 29/06/17 16.13 33.9 °C 12 % 0.5 °C 1010.4 hPa 14.4 Km/h W 0.0 mm  25.7 °C 34.7 °C
Savelli (KR) 29/06/17 16.09 32.7 °C 23 % 8.8 °C 1008.2 hPa 4.5 Km/h S 0.0 mm  25.2 °C 33.7 °C
 
 
Regione CAMPANIA
Località Giorno Ora Temp. Umid. Relat. Dew Point Press. Atm. Velocità Vento Direz. Vento Precip. Temp.
Min
Temp.
Max
Torre Annunziata (NA) 29/06/17 15.55 26.1 °C 77 % 21.8 °C 1010.7 hPa 17.4 Km/h W 0.0 mm  25.0 °C 29.1 °C
 
 
Regione EMILIA ROMAGNA
Località Giorno Ora Temp. Umid. Relat. Dew Point Press. Atm. Velocità Vento Direz. Vento Precip. Temp.
Min
Temp.
Max
Bellaria Igea Marina (RN) 29/06/17 16.13 30.0 °C 29 % 10.0 °C 1003.6 hPa 27.4 Km/h SSE 0.0 mm  19.8 °C 30.0 °C
Bellaria Igea Marina2 (RN) 29/06/17 16.13 30.1 °C 31 % 11.1 °C 1003.2 hPa 22.5 Km/h S 0.0 mm  19.9 °C 30.1 °C
Carpi (MO) 29/06/17 16.13 28.2 °C 34 % 10.9 °C 1002.1 hPa 18.4 Km/h SW 0.3 mm  16.1 °C 29.1 °C
Filo di Argenta (FE) 29/06/17 15.55 28.0 °C 36 % 11.5 °C 1004.2 hPa 27.8 Km/h SW 0.0 mm  17.1 °C 28.0 °C
Masiera di Bagnacavallo (RA) 29/06/17 16.06 30.1 °C 43 % 16.1 °C 1001.3 hPa 18.2 Km/h WSW 4.0 mm  19.4 °C 30.1 °C
Migliarino (FE) 29/06/17 16.06 29.4 °C 28 % 9.0 °C 1001.2 hPa 18.4 Km/h SE 0.3 mm  17.1 °C 29.6 °C
Ponte San Pellegrino (MO) 29/06/17 16.08 27.1 °C 33 % 9.4 °C 993.3 hPa 31.7 Km/h SW 0.0 mm  15.9 °C 27.1 °C
Riccione (RN) 29/06/17 14.50 30.0 °C 28 % 9.5 °C 1004.5 hPa 24.1 Km/h W 0.0 mm  19.9 °C 30.4 °C
Rimini (RN) 29/06/17 15.50 30.7 °C 30 % 11.1 °C 1004.6 hPa 8.0 Km/h S 0.0 mm  20.0 °C 30.7 °C
Rimini Zona Palas (RN) 29/06/17 16.02 29.9 °C 28 % 9.4 °C 1004.3 hPa 20.9 Km/h SW 0.0 mm  20.2 °C 29.9 °C
Santarcangelo di Romagna (RN) 29/06/17 16.11 31.1 °C 28 % 10.4 °C 1004.7 hPa 9.6 Km/h N 2.6 mm  20.6 °C 31.3 °C
Stiore - Monteveglio (BO) 29/06/17 16.10 27.4 °C 35 % 10.6 °C 1000.2 hPa 6.4 Km/h S 0.0 mm  16.3 °C 27.8 °C
 
 
Regione FRIULI V.G.
Località Giorno Ora Temp. Umid. Relat. Dew Point Press. Atm. Velocità Vento Direz. Vento Precip. Temp.
Min
Temp.
Max
Budoia (PN) 29/06/17 16.01 25.2 °C 66 % 18.4 °C 1002.1 hPa 8.0 Km/h S 30.2 mm  14.9 °C 25.2 °C
Campoformido (UD) 29/06/17 16.10 24.2 °C 71 % 18.6 °C 1003.3 hPa 4.9 Km/h S 5.6 mm  15.1 °C 24.2 °C
Fogliano Redipuglia (GO) 29/06/17 16.02 23.3 °C 63 % 15.8 °C 1002.9 hPa 6.4 Km/h N 1.0 mm  14.8 °C 25.4 °C
Fontanafredda (PN) 29/06/17 07.35 16.3 °C 100 % 16.3 °C 999.3 hPa 2.0 Km/h S 9.9 mm  15.0 °C 16.6 °C
Gorizia (GO) 29/06/17 16.14 21.3 °C 83 % 17.9 °C 1003.1 hPa 2.9 Km/h E 32.1 mm  17.1 °C 24.8 °C
Gradisca d'Isonzo (GO) 29/06/17 16.14 21.2 °C 86 % 18.8 °C 1003.4 hPa 0.0 Km/h NE 0.0 mm  16.1 °C 26.2 °C
Ovaro loc. Liariis (UD) 29/06/17 15.45 19.1 °C 85 % 16.5 °C 1003.2 hPa 1.6 Km/h W 5.6 mm  12.4 °C 20.2 °C
Pordenone (PN) 29/06/17 15.50 26.8 °C 58 % 17.8 °C 1002.0 hPa 3.2 Km/h S 8.6 mm  16.3 °C 27.1 °C
Sacile (PN) 29/06/17 15.50 25.1 °C 68 % 18.8 °C 1001.6 hPa 3.2 Km/h SW 12.7 mm  15.8 °C 25.5 °C
Staranzano (GO) 29/06/17 13.51 24.9 °C 62 % 17.2 °C 1003.6 hPa 6.4 Km/h S 0.5 mm  24.7 °C 25.0 °C
 
 
Regione LAZIO
Località Giorno Ora Temp. Umid. Relat. Dew Point Press. Atm. Velocità Vento Direz. Vento Precip. Temp.
Min
Temp.
Max
Capodimonte (VT) 29/06/17 16.10 24.3 °C 68 % 18.0 °C 1008.4 hPa 11.3 Km/h W 0.0 mm  20.7 °C 26.1 °C
Caprarola Centro Storico (VT) 29/06/17 16.13 25.2 °C 65 % 18.2 °C 1007.0 hPa 4.6 Km/h NW 0.0 mm  18.7 °C 26.7 °C
Civita Castellana (VT) 29/06/17 16.14 26.6 °C 50 % 15.3 °C 1009.4 hPa 13.9 Km/h SSW 0.0 mm  21.3 °C 28.4 °C
Marta (VT) 29/06/17 15.55 24.3 °C 68 % 18.0 °C 1007.8 hPa 20.4 Km/h SW 0.0 mm  20.5 °C 26.2 °C
Pomezia (RM) 29/06/17 16.10 29.2 °C 52 % 18.3 °C 1008.3 hPa 1.6 Km/h SSE 0.0 mm  23.7 °C 29.4 °C
Roma Prato della Signora (RM) 29/06/17 16.08 31.4 °C 58 % 22.2 °C 1008.0 hPa 5.6 Km/h W 0.0 mm  29.3 °C 31.5 °C
Ronciglione Centro (VT) 29/06/17 16.10 24.0 °C 46 % 11.7 °C 1012.0 hPa 5.4 Km/h WSW 0.0 mm  18.9 °C 25.8 °C
Ronciglione - Ponte Cuzzoli (VT) 29/06/17 15.55 25.2 °C 57 % 16.0 °C 1008.8 hPa 6.4 Km/h S 0.0 mm  18.7 °C 26.2 °C
S. Lorenzo Nuovo (VT) 29/06/17 16.11 22.4 °C 67 % 16.0 °C 1008.6 hPa 26.3 Km/h SW 0.0 mm  18.3 °C 23.9 °C
Tuscania (VT) 29/06/17 09.45 24.5 °C 64 % 17.2 °C 1006.5 hPa 7.8 Km/h SW 0.0 mm  21.5 °C 24.5 °C
Valentano (VT) 29/06/17 16.10 21.7 °C 75 % 17.2 °C 1006.9 hPa 19.3 Km/h S 0.0 mm  18.6 °C 23.2 °C
Viterbo Santa Barbara (VT) 26/06/17 06.54 19.3 °C 89 % 17.5 °C 1012.4 hPa 0.0 Km/h NNE 0.0 mm  19.1 °C 21.8 °C
Vitorchiano Pallone (VT) 29/06/17 15.50 25.9 °C 52 % 15.3 °C 1007.0 hPa 19.3 Km/h WSW 2.0 mm  20.1 °C 27.2 °C
 
 
Regione LIGURIA
Località Giorno Ora Temp. Umid. Relat. Dew Point Press. Atm. Velocità Vento Direz. Vento Precip. Temp.
Min
Temp.
Max
Arenzano (GE) 29/06/17 16.13 22.9 °C 69 % 16.9 °C 1003.7 hPa 20.9 Km/h S 0.0 mm  19.5 °C 23.5 °C
Cosseria Lidora (SV) 29/06/17 15.45 24.2 °C 56 % 14.8 °C 999.4 hPa 9.7 Km/h SE 0.0 mm  13.9 °C 24.3 °C
Genova Albaro (GE) 29/06/17 16.14 23.2 °C 50 % 12.2 °C 1009.0 hPa 13.1 Km/h S 0.0 mm  20.4 °C 25.0 °C
Genova Erzelli (GE) 29/06/17 15.57 22.7 °C 68 % 16.5 °C 1003.7 hPa 16.1 Km/h SSW 0.0 mm  19.2 °C 24.1 °C
Loano (SV) 29/06/17 15.55 26.6 °C 51 % 15.6 °C 1000.1 hPa 29.0 Km/h SSW 0.0 mm  20.8 °C 27.8 °C
Moneglia loc. La Secca (GE) 29/06/17 16.10 23.0 °C 78 % 19.0 °C 1006.0 hPa 9.1 Km/h SSW 0.0 mm  22.1 °C 23.7 °C
Ortonovo (SP) 29/06/17 16.10 22.4 °C 66 % 15.8 °C 1006.4 hPa 31.4 Km/h SW 0.0 mm  19.4 °C 22.4 °C
Varese Ligure (SP) 29/06/17 16.10 20.2 °C 10 % -12.4 °C 1024.6 hPa 11.0 Km/h E 3.0 mm  17.3 °C 22.0 °C
 
 
Regione LOMBARDIA
Località Giorno Ora Temp. Umid. Relat. Dew Point Press. Atm. Velocità Vento Direz. Vento Precip. Temp.
Min
Temp.
Max
Besozzo (VA) 29/06/17 15.48 20.0 °C 70 % 14.4 °C 1000.4 hPa 0.0 Km/h W 2.0 mm  14.4 °C 22.9 °C
Calcinato (BS) 29/06/17 16.13 26.2 °C 49 % 14.6 °C 1003.5 hPa 22.5 Km/h S 11.9 mm  15.9 °C 26.3 °C
Cassano Magnago (VA) 29/06/17 16.03 19.3 °C 79 % 15.6 °C 1002.9 hPa 3.2 Km/h SE 1.5 mm  14.8 °C 26.4 °C
Cavaria con Premezzo (VA) 29/06/17 16.13 18.3 °C 82 % 15.0 °C 1001.2 hPa 2.0 Km/h ENE 1.0 mm  15.3 °C 24.1 °C
Dorno (PV) 29/06/17 16.13 25.9 °C 54 % 15.9 °C 1000.0 hPa 11.3 Km/h SSW 0.0 mm  17.8 °C 26.0 °C
Esine (BS) 29/06/17 16.10 23.4 °C 55 % 13.8 °C 1000.1 hPa 11.2 Km/h SSW 4.2 mm  15.1 °C 26.4 °C
Laxolo (BG) 29/06/17 15.52 20.9 °C 64 % 13.8 °C 1001.9 hPa 5.8 Km/h S 14.4 mm  13.8 °C 22.1 °C
Lesmo (MB) 29/06/17 15.55 15.7 °C 84 % 13.0 °C 1001.8 hPa 3.2 Km/h ENE 29.2 mm  15.3 °C 24.7 °C
Lovere (BG) 29/06/17 16.03 22.5 °C 28 % 3.1 °C 1002.0 hPa 6.5 Km/h SW 3.0 mm  15.4 °C 25.8 °C
Malnate San Salvatore (VA) 29/06/17 13.10 22.6 °C 69 % 16.6 °C 1002.0 hPa 1.6 Km/h N 0.8 mm  14.3 °C 22.6 °C
Mezzana Bigli (PV) 29/06/17 16.10 25.6 °C 53 % 15.3 °C 999.0 hPa 6.1 Km/h SSE 0.0 mm  17.2 °C 26.3 °C
Montagna in Valtellina (SO) 29/06/17 16.10 22.8 °C 67 % 16.4 °C 1000.8 hPa 0.0 Km/h WSW 1.6 mm  14.3 °C 23.9 °C
Morbegno (SO) 29/06/17 16.10 24.1 °C 61 % 16.1 °C 999.2 hPa 0.0 Km/h W 1.0 mm  14.9 °C 24.6 °C
Ostiano (CR) 29/06/17 16.08 27.4 °C 41 % 13.0 °C 1001.3 hPa 11.2 Km/h SSE 0.3 mm  16.8 °C 27.5 °C
Rivalta sul Mincio (MN) 29/06/17 15.53 27.9 °C 46 % 15.2 °C 1001.9 hPa 19.6 Km/h WSW 0.4 mm  16.6 °C 28.1 °C
 
 
Regione MARCHE
Località Giorno Ora Temp. Umid. Relat. Dew Point Press. Atm. Velocità Vento Direz. Vento Precip. Temp.
Min
Temp.
Max
Ancona (AN) 29/06/17 15.55 30.8 °C 38 % 14.9 °C 1005.7 hPa 6.4 Km/h W 4.8 mm  18.3 °C 31.2 °C
Ca' Gallo (PU) 29/06/17 16.02 29.7 °C 35 % 12.6 °C 1000.9 hPa 13.0 Km/h SW 0.0 mm  17.7 °C 30.0 °C
Montelabbate (PU) 29/06/17 16.07 29.6 °C 30 % 10.2 °C 1004.3 hPa 21.6 Km/h WSW 0.0 mm  20.9 °C 30.1 °C
San Benedetto del Tronto (AP) 29/06/17 15.20 33.0 °C 15 % 2.9 °C 1007.0 hPa 3.7 Km/h N 0.0 mm  23.0 °C 33.0 °C
 
 
Regione MOSELLE
Località Giorno Ora Temp. Umid. Relat. Dew Point Press. Atm. Velocità Vento Direz. Vento Precip. Temp.
Min
Temp.
Max
 
 
Regione PIEMONTE
Località Giorno Ora Temp. Umid. Relat. Dew Point Press. Atm. Velocità Vento Direz. Vento Precip. Temp.
Min
Temp.
Max
Borgofranco d'Ivrea (TO) 29/06/17 16.14 22.9 °C 58 % 14.2 °C 1000.6 hPa 14.8 Km/h N 0.5 mm  15.3 °C 24.4 °C
Magnano (BI) 29/06/17 16.14 21.3 °C 72 % 16.1 °C 999.5 hPa 2.5 Km/h NE 0.0 mm  13.8 °C 21.4 °C
Monasterolo Torinese (TO) 29/06/17 15.55 22.2 °C 55 % 12.7 °C 996.2 hPa 0.0 Km/h --- 0.5 mm  13.6 °C 22.2 °C
Mongrando San Michele (BI) 29/06/17 15.54 20.9 °C 79 % 17.1 °C 1000.0 hPa 0.0 Km/h NW 0.2 mm  13.8 °C 22.1 °C
Muzzano (BI) 29/06/17 15.40 18.1 °C 85 % 15.5 °C 999.6 hPa 1.6 Km/h NE 1.6 mm  14.0 °C 20.3 °C
Nichelino (TO) 29/06/17 16.00 24.4 °C 49 % 13.0 °C 998.9 hPa 16.1 Km/h N 0.3 mm  16.6 °C 26.1 °C
Novara (NO) 29/06/17 15.50 23.1 °C 67 % 16.6 °C 1000.0 hPa 0.0 Km/h N 0.2 mm  15.6 °C 26.9 °C
Ostana (CN) 29/06/17 16.10 13.9 °C 71 % 8.8 °C 1000.2 hPa 3.2 Km/h SSW 39.6 mm  8.6 °C 16.2 °C
Parella (TO) 29/06/17 16.06 22.2 °C 76 % 17.7 °C 1001.6 hPa 0.0 Km/h S 0.3 mm  15.7 °C 22.2 °C
Pecetto Torinese (TO) 29/06/17 16.04 25.1 °C 60 % 16.8 °C 1003.9 hPa 14.5 Km/h NNE 0.5 mm  15.3 °C 27.4 °C
Pila Valsesia (VC) 29/06/17 15.50 16.9 °C 85 % 14.3 °C 998.8 hPa 0.0 Km/h ESE 1.8 mm  12.2 °C 20.3 °C
Piovà Massaia (AT) 29/06/17 16.10 22.0 °C 72 % 16.7 °C 999.0 hPa 3.2 Km/h ENE 1.2 mm  15.1 °C 25.6 °C
Pozzolo Formigaro (AL) 29/06/17 15.56 24.3 °C 59 % 15.7 °C 1001.3 hPa 12.2 Km/h S 0.0 mm  16.8 °C 29.4 °C
Pray (BI) 29/06/17 16.10 18.1 °C 86 % 15.7 °C 1000.2 hPa 3.0 Km/h --- 3.2 mm  13.6 °C 20.2 °C
Rivalba (TO) 29/06/17 16.10 24.7 °C 56 % 15.3 °C 1001.1 hPa 0.0 Km/h N 1.0 mm  22.1 °C 24.8 °C
Soriso (NO) 29/06/17 15.50 19.1 °C 84 % 16.3 °C 1001.2 hPa 1.6 Km/h NNE 0.0 mm  15.0 °C 22.5 °C
Torino Regio Parco (TO) 29/06/17 16.08 23.1 °C 60 % 14.9 °C 1002.3 hPa 5.8 Km/h NNE 1.6 mm  16.8 °C 27.1 °C
Valenza (AL) 29/06/17 15.59 24.8 °C 55 % 15.1 °C 998.5 hPa 0.0 Km/h SSE 0.0 mm  16.8 °C 25.4 °C
Viozene Toria (CN) 29/06/17 16.10 19.8 °C 39 % 5.5 °C 1007.4 hPa 7.0 Km/h WNW 0.0 mm  9.0 °C 20.2 °C
 
 
Regione PUGLIA
Località Giorno Ora Temp. Umid. Relat. Dew Point Press. Atm. Velocità Vento Direz. Vento Precip. Temp.
Min
Temp.
Max
Acquaviva delle Fonti (BA) 29/06/17 16.13 34.0 °C 34 % 15.9 °C 1008.7 hPa 6.7 Km/h NNE 0.0 mm  23.2 °C 36.2 °C
S. Giovanni Rotondo (FG) 29/06/17 15.55 29.6 °C 25 % 7.4 °C 1007.5 hPa 16.1 Km/h SSW 0.0 mm  22.6 °C 29.6 °C
Taranto (TA) 29/06/17 15.55 32.6 °C 46 % 19.4 °C 1004.9 hPa 0.0 Km/h S 0.0 mm  25.2 °C 33.6 °C
Torremaggiore (FG) 29/06/17 16.11 32.3 °C 25 % 9.8 °C 1005.9 hPa 19.3 Km/h SO 0.0 mm  24.7 °C 32.7 °C
Vieste (FG) 29/06/17 16.11 32.4 °C 35 % 15.0 °C 1007.4 hPa 10.6 Km/h NNE 0.0 mm  28.9 °C 34.8 °C
 
 
Regione SARDEGNA
Località Giorno Ora Temp. Umid. Relat. Dew Point Press. Atm. Velocità Vento Direz. Vento Precip. Temp.
Min
Temp.
Max
Bitti (NU) 29/06/17 16.12 27.2 °C 47 % 14.9 °C 1011.9 hPa 1.8 Km/h W 0.0 mm  19.3 °C 28.3 °C
Bonorva (SS) 29/06/17 15.50 25.6 °C 68 % 19.3 °C 1008.0 hPa 14.5 Km/h W 1.0 mm  19.3 °C 25.8 °C
Borore (NU) 29/06/17 16.14 28.6 °C 48 % 16.5 °C 1006.9 hPa 13.9 Km/h S 0.0 mm  19.6 °C 29.0 °C
Iglesias (CI) 29/06/17 16.04 27.6 °C 64 % 20.2 °C 1011.1 hPa 13.0 Km/h ESE 0.0 mm  22.2 °C 28.1 °C
Oristano (OR) 29/06/17 16.09 27.8 °C 70 % 21.9 °C 1008.3 hPa 5.6 Km/h SW 0.0 mm  22.7 °C 28.4 °C
Orosei (NU) 29/06/17 15.56 28.7 °C 67 % 21.9 °C 1007.5 hPa 12.9 Km/h E 0.0 mm  24.9 °C 29.4 °C
San Vito (CA) 29/06/17 16.11 36.3 °C 32 % 17.0 °C 1001.7 hPa 0.0 Km/h N 0.0 mm  22.4 °C 36.3 °C
Sinnai (CA) 29/06/17 15.45 29.4 °C 59 % 20.5 °C 1009.1 hPa 8.0 Km/h SE 0.0 mm  22.3 °C 30.8 °C
 
 
Regione SICILIA
Località Giorno Ora Temp. Umid. Relat. Dew Point Press. Atm. Velocità Vento Direz. Vento Precip. Temp.
Min
Temp.
Max
Barcellona P.G. Centro (ME) 29/06/17 16.13 29.2 °C 70 % 23.2 °C 1010.8 hPa 16.1 Km/h W 0.0 mm  26.2 °C 31.2 °C
Barcellona Pozzo di Gotto (ME) 29/06/17 16.13 28.0 °C 71 % 22.2 °C 1009.8 hPa 14.5 Km/h N 0.0 mm  25.9 °C 31.1 °C
Brolo c/da Parrazzà (ME) 29/06/17 15.55 28.3 °C 72 % 22.8 °C 1011.3 hPa 16.0 Km/h N 0.0 mm  25.8 °C 28.9 °C
Buccheri (SR) 29/06/17 15.47 33.8 °C 52 % 22.6 °C 1013.0 hPa 0.0 Km/h SW 0.0 mm  24.9 °C 34.6 °C
Caltabellotta (AG) 29/06/17 15.50 31.7 °C 27 % 10.4 °C 1008.8 hPa 5.0 Km/h S 0.0 mm  23.3 °C 31.8 °C
Cammarata (AG) 29/06/17 16.13 29.6 °C 60 % 21.0 °C 1009.6 hPa 15.8 Km/h WNW 0.0 mm  22.7 °C 33.7 °C
Cefalù (PA) 29/06/17 16.13 26.9 °C 76 % 22.3 °C 1008.9 hPa 8.7 Km/h ENE 0.0 mm  25.8 °C 29.4 °C
Mirabella Imbaccari (CT) 29/06/17 15.58 35.4 °C 23 % 11.1 °C 1006.6 hPa 16.7 Km/h SW 0.0 mm  24.7 °C 35.6 °C
Pace del Mela (ME) 29/06/17 16.10 29.5 °C 63 % 21.7 °C 1013.2 hPa 6.5 Km/h NW 0.0 mm  24.5 °C 32.1 °C
Pedara (CT) 29/06/17 15.10 32.4 °C 30 % 12.6 °C 1011.5 hPa 4.3 Km/h ENE 0.0 mm  27.0 °C 34.3 °C
Piraino contr. Fiumara (ME) 29/06/17 15.55 28.6 °C 73 % 23.2 °C 1011.0 hPa 13.0 Km/h WSW 0.0 mm  23.4 °C 29.3 °C
San Cataldo (CL) 29/06/17 16.10 35.2 °C 5 % -10.1 °C 1012.9 hPa 14.1 Km/h SW 0.0 mm  23.5 °C 36.0 °C
San Giovanni la Punta Trappeto (CT) 29/06/17 15.55 36.1 °C 30 % 15.8 °C 1009.5 hPa 4.8 Km/h NE 0.0 mm  25.6 °C 36.1 °C
 
 
Regione TOSCANA
Località Giorno Ora Temp. Umid. Relat. Dew Point Press. Atm. Velocità Vento Direz. Vento Precip. Temp.
Min
Temp.
Max
Avenza-Carrara (MS) 29/06/17 15.40 27.3 °C 45 % 14.3 °C 1009.2 hPa 3.2 Km/h N 0.0 mm  21.7 °C 27.7 °C
Carmignano loc. Seano (PO) 29/06/17 16.14 27.2 °C 38 % 11.7 °C 1005.9 hPa 26.0 Km/h SW 0.3 mm  17.9 °C 27.4 °C
Castelnuovo V.C. (PI) 29/06/17 04.13 16.3 °C 97 % 15.8 °C 1000.4 hPa 1.7 Km/h SSE 2.4 mm  16.2 °C 16.9 °C
Castiglione della Pescaia Vaticino (GR) 29/06/17 16.09 27.9 °C 55 % 18.0 °C 1007.1 hPa 4.0 Km/h SE 4.9 mm  18.8 °C 28.7 °C
Isola d'Elba Marina di Campo (LI) 29/06/17 08.30 26.7 °C 53 % 16.3 °C 1001.6 hPa 3.2 Km/h SW 0.0 mm  21.4 °C 26.7 °C
Massarosa (LU) 29/06/17 16.10 26.3 °C 49 % 14.7 °C 996.3 hPa 9.7 Km/h W 0.0 mm  21.0 °C 26.5 °C
Montespertoli (FI) 29/06/17 16.05 26.5 °C 34 % 9.3 °C 1009.4 hPa 8.0 Km/h NW 0.0 mm  18.6 °C 27.2 °C
Pisa zona I Passi (PI) 29/06/17 16.10 26.2 °C 42 % 12.3 °C 1008.3 hPa 17.6 Km/h WNW 0.0 mm  21.6 °C 26.6 °C
Reggello (FI) 29/06/17 16.10 25.8 °C 37 % 10.0 °C 1009.3 hPa 14.5 Km/h NE 0.0 mm  18.4 °C 26.0 °C
Torri (FI) 29/06/17 15.45 26.5 °C 36 % 10.2 °C 1005.6 hPa 3.2 Km/h W 0.0 mm  24.2 °C 26.7 °C
Torrita di Siena (SI) 29/06/17 15.55 29.2 °C 40 % 14.2 °C 1007.4 hPa 14.5 Km/h SSW 7.2 mm  16.9 °C 29.9 °C
 
 
Regione TRENTINO A. A.
Località Giorno Ora Temp. Umid. Relat. Dew Point Press. Atm. Velocità Vento Direz. Vento Precip. Temp.
Min
Temp.
Max
Ala (TN) 29/06/17 16.13 24.7 °C 55 % 15.1 °C 1000.9 hPa 17.6 Km/h WSW 16.0 mm  14.8 °C 25.3 °C
Avio (TN) 29/06/17 15.54 26.1 °C 52 % 15.5 °C 1001.6 hPa 3.0 Km/h ESE 18.8 mm  15.6 °C 26.1 °C
Besenello (TN) 29/06/17 16.13 25.4 °C 48 % 13.6 °C 1001.9 hPa 5.4 Km/h NE 15.0 mm  14.7 °C 27.2 °C
Bolognano di Arco (TN) 29/06/17 16.14 24.3 °C 63 % 16.8 °C 1001.7 hPa 18.2 Km/h SSE 12.8 mm  14.4 °C 25.0 °C
Borgo Valsugana (TN) 29/06/17 16.00 23.7 °C 51 % 13.0 °C 1003.9 hPa 1.8 Km/h SSE 17.3 mm  13.6 °C 24.0 °C
Calliano (TN) 29/06/17 16.13 25.0 °C 51 % 14.1 °C 1000.6 hPa 19.3 Km/h W 18.4 mm  13.8 °C 27.2 °C
Fiavè loc. Ballino (TN) 29/06/17 16.14 18.1 °C 70 % 12.6 °C 1001.7 hPa 20.2 Km/h S 9.3 mm  11.6 °C 19.7 °C
Gardolo (TN) 29/06/17 16.14 26.6 °C 52 % 15.9 °C 1001.5 hPa 10.1 Km/h NE 8.4 mm  14.3 °C 26.0 °C
Lavis (TN) 29/06/17 16.10 25.9 °C 52 % 15.6 °C 1000.8 hPa 13.0 Km/h WSW 5.6 mm  14.9 °C 26.1 °C
Margone (TN) 29/06/17 16.10 16.4 °C 80 % 12.9 °C 1005.1 hPa 31.0 Km/h SSW 2.8 mm  10.6 °C 16.6 °C
Martignano (TN) 29/06/17 15.55 23.9 °C 55 % 14.3 °C 999.7 hPa 3.2 Km/h ENE 10.2 mm  13.3 °C 23.9 °C
Massone di Arco (TN) 29/06/17 16.10 23.8 °C 66 % 17.1 °C 1002.3 hPa 20.0 Km/h SSO 19.2 mm  14.8 °C 24.4 °C
Miola di Piné (TN) 29/06/17 16.10 19.6 °C 61 % 11.9 °C 1002.8 hPa 11.0 Km/h SSW 11.8 mm  10.4 °C 19.6 °C
Padergnone (TN) 29/06/17 16.00 25.4 °C 61 % 17.3 °C 1001.4 hPa 10.0 Km/h SSW 4.8 mm  14.9 °C 25.4 °C
Taio Mollaro (TN) 29/06/17 16.10 22.6 °C 60 % 14.4 °C 1003.6 hPa 3.2 Km/h E 0.6 mm  13.2 °C 24.4 °C
Trambileno (TN) 29/06/17 15.46 21.6 °C 57 % 12.8 °C 1013.4 hPa 0.0 Km/h N 17.5 mm  11.3 °C 22.4 °C
Trento (TN) 29/06/17 16.11 26.8 °C 45 % 13.9 °C 999.9 hPa 20.9 Km/h SSW 12.6 mm  15.3 °C 26.9 °C
Vattaro fraz. Pian dei Pradi (TN) 29/06/17 16.08 21.3 °C 52 % 11.0 °C 1002.9 hPa 7.6 Km/h WSW 15.2 mm  11.0 °C 21.3 °C
 
 
Regione UMBRIA
Località Giorno Ora Temp. Umid. Relat. Dew Point Press. Atm. Velocità Vento Direz. Vento Precip. Temp.
Min
Temp.
Max
Castiglione del Lago (PG) 29/06/17 15.50 27.0 °C 46 % 14.4 °C 1008.5 hPa 14.5 Km/h SSE 19.6 mm  17.0 °C 28.1 °C
Foligno (PG) 29/06/17 15.50 28.7 °C 39 % 13.3 °C 1006.8 hPa 19.3 Km/h SW 0.5 mm  19.4 °C 29.6 °C
Orvieto (TR) 29/06/17 16.01 28.4 °C 49 % 16.7 °C 1007.2 hPa 2.8 Km/h W 0.0 mm  21.3 °C 30.1 °C
Todi (PG) 29/06/17 15.55 25.8 °C 47 % 13.6 °C 1006.9 hPa 5.0 Km/h WNW 0.4 mm  20.1 °C 27.8 °C
 
 
Regione VALLE DAOSTA
Località Giorno Ora Temp. Umid. Relat. Dew Point Press. Atm. Velocità Vento Direz. Vento Precip. Temp.
Min
Temp.
Max
Colle del Piccolo San Bernardo La Thuile (AO) 29/06/17 15.59 4.1 °C 89 % 2.8 °C 1005.3 hPa 16.1 Km/h SSW 9.1 mm  2.2 °C 5.2 °C
 
 
Regione VENETO
Località Giorno Ora Temp. Umid. Relat. Dew Point Press. Atm. Velocità Vento Direz. Vento Precip. Temp.
Min
Temp.
Max
Abano (PD) 29/06/17 15.55 28.4 °C 52 % 17.6 °C 1000.4 hPa 8.0 Km/h S 0.2 mm  17.5 °C 28.4 °C
Alleghe (BL) 29/06/17 16.14 17.1 °C 78 % 13.2 °C 993.0 hPa 4.1 Km/h SW 3.1 mm  9.3 °C 17.8 °C
Alleghe Lago (BL) 29/06/17 16.14 16.8 °C 78 % 12.9 °C 997.1 hPa 12.1 Km/h S 0.0 mm  10.1 °C 17.4 °C
Arquà Polesine (RO) 29/06/17 16.13 28.9 °C 34 % 11.5 °C 1003.6 hPa 5.0 Km/h WNW 0.0 mm  16.7 °C 30.8 °C
Arzignano loc. Castello (VI) 29/06/17 14.45 24.9 °C 61 % 16.9 °C 1001.7 hPa 3.1 Km/h SSW 5.6 mm  15.7 °C 25.0 °C
Arzignano Pugnello (VI) 29/06/17 16.14 25.0 °C 57 % 15.6 °C 1000.0 hPa 3.0 Km/h NNW 9.8 mm  14.8 °C 25.3 °C
Arzignano San Bortolo (VI) 29/06/17 15.03 24.4 °C 61 % 16.3 °C 998.9 hPa 19.3 Km/h SSW 0.8 mm  -573.3 °C 24.4 °C
Arzignano Tezze (VI) 29/06/17 16.01 29.2 °C 51 % 18.0 °C 1001.2 hPa 1.6 Km/h WNW 0.0 mm  15.9 °C 29.2 °C
Asiago Rifugio Val Formica (VI) 29/06/17 16.03 13.1 °C 80 % 9.7 °C 1003.3 hPa 0.0 Km/h N 5.8 mm  6.3 °C 13.2 °C
Badia Calavena loc. San Valentino (VR) 29/06/17 16.13 19.1 °C 73 % 14.2 °C 1000.4 hPa 14.5 Km/h SSW 9.0 mm  12.6 °C 19.3 °C
Bassano del Grappa (VI) 29/06/17 08.00 16.5 °C 90 % 14.9 °C 986.9 hPa 0.0 Km/h ENE 12.8 mm  15.6 °C 17.3 °C
Belluno Castion (BL) 29/06/17 15.45 20.7 °C 79 % 16.9 °C 1001.3 hPa 4.8 Km/h NNE 10.0 mm  13.6 °C 21.8 °C
Brugine2 (PD) 29/06/17 16.08 26.9 °C 63 % 19.3 °C 1002.0 hPa 1.1 Km/h SSW 0.0 mm  15.9 °C 28.4 °C
Camposampiero (PD) 29/06/17 15.58 26.5 °C 46 % 14.0 °C 1003.0 hPa 11.1 Km/h SW 16.9 mm  22.9 °C 26.6 °C
Caprino (VR) 29/06/17 16.13 23.3 °C 64 % 16.1 °C 1000.3 hPa 2.0 Km/h SW 12.2 mm  15.4 °C 25.2 °C
Carceri (PD) 29/06/17 15.48 27.6 °C 47 % 15.0 °C 1001.6 hPa 19.3 Km/h SW 2.8 mm  16.1 °C 28.2 °C
Cartigliano (VI) 29/06/17 16.13 27.6 °C 54 % 17.4 °C 1000.9 hPa 19.1 Km/h SW 5.6 mm  15.8 °C 27.6 °C
Cartura (PD) 29/06/17 16.14 28.7 °C 48 % 16.6 °C 1000.7 hPa 15.9 Km/h SSW 0.0 mm  15.7 °C 29.1 °C
Casotto (VI) 29/06/17 15.58 24.2 °C 55 % 14.4 °C 1000.2 hPa 3.2 Km/h N 12.7 mm  12.8 °C 24.4 °C
Castel d'Azzano (VR) 29/06/17 15.45 27.4 °C 42 % 13.4 °C 844.4 hPa 12.9 Km/h SW 0.2 mm  17.0 °C 27.5 °C
Castelfranco Veneto (TV) 28/06/17 19.40 20.1 °C 91 % 18.6 °C 1001.6 hPa 19.3 Km/h W 12.2 mm  18.8 °C 30.2 °C
Castelfranco Veneto2 (TV) 29/06/17 15.54 26.9 °C 56 % 17.4 °C 1002.3 hPa 6.4 Km/h SW 6.1 mm  16.4 °C 26.9 °C
Castelgomberto (VI) 29/06/17 16.14 27.1 °C 50 % 15.7 °C 1000.8 hPa 16.1 Km/h SW 12.4 mm  15.7 °C 27.4 °C
Cerea (VR) 29/06/17 08.00 17.8 °C 97 % 17.4 °C 1000.3 hPa 1.6 Km/h SW 11.2 mm  15.7 °C 17.9 °C
Cerea2 (VR) 29/06/17 15.55 28.3 °C 36 % 12.1 °C 998.9 hPa 26.4 Km/h SSE 8.4 mm  16.1 °C 28.4 °C
Cima Grappa (TV) 29/06/17 16.14 10.2 °C 99 % 10.1 °C 1003.9 hPa 14.1 Km/h SSW 17.0 mm  6.6 °C 10.3 °C
Cismon del Grappa loc. Corlo (VI) 29/06/17 16.14 23.8 °C 54 % 13.9 °C 1003.8 hPa 12.2 Km/h WSW 9.7 mm  13.8 °C 24.1 °C
Cittadella (PD) 29/06/17 16.13 27.8 °C 53 % 17.3 °C 1001.2 hPa 5.2 Km/h SW 5.1 mm  16.8 °C 27.9 °C
Cogollo del Cengio (VI) 29/06/17 16.13 24.8 °C 35 % 8.3 °C 1002.2 hPa 10.3 Km/h SE 18.3 mm  13.8 °C 25.4 °C
Colle S. Lucia Posalz (BL) 29/06/17 16.13 14.1 °C 73 % 9.3 °C 1014.9 hPa 0.0 Km/h S 1.0 mm  8.4 °C 16.4 °C
Cologna Veneta Sant'Andrea (VR) 29/06/17 15.55 26.2 °C 64 % 18.9 °C 1000.3 hPa 4.8 Km/h WSW 0.6 mm  15.4 °C 26.7 °C
Colognola ai Colli (VR) 29/06/17 15.55 26.8 °C 56 % 17.3 °C 1003.0 hPa 11.3 Km/h SW 14.8 mm  15.6 °C 27.4 °C
Contrada Dosso Gervasio (VR) 29/06/17 16.00 18.0 °C 76 % 13.3 °C 1002.2 hPa 6.0 Km/h SSW 20.0 mm  11.8 °C 18.6 °C
Corrubio di S. Anna d'Alfaedo (VR) 29/06/17 15.55 18.5 °C 76 % 14.2 °C 1004.0 hPa 14.5 Km/h SSE 10.8 mm  12.6 °C 19.2 °C
Costa di Vittorio Veneto (TV) 29/06/17 16.03 24.4 °C 66 % 17.6 °C 1001.2 hPa 0.0 Km/h NNW 5.8 mm  15.2 °C 24.4 °C
Crespano del Grappa (TV) 29/06/17 16.01 24.5 °C 61 % 16.5 °C 1001.9 hPa 4.0 Km/h WSW 8.9 mm  14.9 °C 24.5 °C
Dossobuono (VR) 29/06/17 16.14 27.1 °C 41 % 12.7 °C 1003.6 hPa 33.8 Km/h SSW 3.2 mm  16.6 °C 27.3 °C
Falzè di Piave (TV) 29/06/17 16.13 27.2 °C 53 % 16.8 °C 1002.9 hPa 3.0 Km/h --- 7.4 mm  15.4 °C 27.6 °C
Farra di Soligo (TV) 29/06/17 16.12 26.5 °C 62 % 18.6 °C 1001.5 hPa 0.0 Km/h NE 11.4 mm  15.5 °C 26.9 °C
Favaro Veneto (VE) 29/06/17 16.10 27.7 °C 54 % 17.5 °C 1002.4 hPa 6.4 Km/h SW 0.2 mm  16.1 °C 27.7 °C
Feltre Celarda (BL) 29/06/17 16.11 24.7 °C 61 % 16.7 °C 999.7 hPa 2.0 Km/h W 11.2 mm  14.4 °C 24.7 °C
Ferrara di M.B. (VR) 28/06/17 02.10 15.8 °C 77 % 1.0 °C 0.0 hPa 0.0 Km/h 0.2 mm  15.6 °C 16.7 °C
Gallio (VI) 29/06/17 16.05 19.2 °C 65 % 12.5 °C 1002.9 hPa 8.0 Km/h SSE 11.9 mm  9.9 °C 19.9 °C
Giazza (VR) 29/06/17 16.10 19.6 °C 70 % 13.9 °C 1002.2 hPa 1.4 Km/h S 20.8 mm  12.2 °C 20.4 °C
Jesolo (VE) 28/06/17 20.30 17.7 °C 0 % 0.0 °C 997.2 hPa 3.2 Km/h NNW 643.0 mm  17.1 °C 28.6 °C
Legnago (VR) 29/06/17 15.55 28.9 °C 41 % 14.3 °C 1002.4 hPa 6.4 Km/h SW 0.2 mm  15.9 °C 29.1 °C
Lugagnano (VR) 29/06/17 16.14 27.9 °C 44 % 14.4 °C 1000.5 hPa 17.8 Km/h WNW 225.6 mm  16.1 °C 28.1 °C
Lusiana Sciessere (VI) 29/06/17 16.13 20.3 °C 68 % 14.2 °C 1006.2 hPa 9.7 Km/h NW 22.4 mm  11.8 °C 21.0 °C
Marano Vicentino2 (VI) 29/06/17 16.10 27.5 °C 52 % 16.8 °C 1001.4 hPa 2.2 Km/h NNW 22.8 mm  15.3 °C 27.5 °C
Marostica Valle San Floriano (VI) 29/06/17 16.13 25.4 °C 55 % 15.6 °C 1002.5 hPa 5.0 Km/h SSE 13.8 mm  15.2 °C 25.9 °C
Merlara (PD) 29/06/17 15.55 27.7 °C 41 % 13.3 °C 1001.6 hPa 29.0 Km/h SW 0.3 mm  15.2 °C 28.1 °C
Montebello Vicentino loc. Selva (VI) 29/06/17 16.10 26.7 °C 57 % 17.5 °C 1003.0 hPa 8.3 Km/h S 12.7 mm  15.5 °C 26.7 °C
Montecchio Maggiore La Valle (VI) 29/06/17 16.03 29.2 °C 49 % 17.4 °C 995.8 hPa 1.8 Km/h WNW 0.0 mm  16.2 °C 29.2 °C
Montecchio Maggiore Sant'Urbano (VI) 29/06/17 16.04 26.0 °C 51 % 15.0 °C 1006.7 hPa 17.9 Km/h SE 6.9 mm  15.0 °C 26.0 °C
Monteforte d'Alpone (VR) 29/06/17 15.55 26.1 °C 54 % 16.1 °C 1000.6 hPa 20.9 Km/h SW 8.4 mm  16.3 °C 26.7 °C
Montorso Vicentino (VI) 29/06/17 16.10 24.8 °C 62 % 17.0 °C 1002.1 hPa 0.0 Km/h WSW 13.6 mm  14.6 °C 24.8 °C
Onara extraurbana (PD) 29/06/17 16.09 19.3 °C 88 % 17.3 °C 1001.8 hPa 5.2 Km/h SE 6.3 mm  16.0 °C 19.3 °C
Pastrengo (VR) 29/06/17 16.07 24.6 °C 62 % 16.8 °C 1003.3 hPa 7.2 Km/h S 6.6 mm  15.6 °C 26.3 °C
Pastrengo Cornè (VR) 29/06/17 15.56 23.3 °C 70 % 17.5 °C 1000.5 hPa 3.2 Km/h SW 6.2 mm  15.1 °C 25.4 °C
Pedemonte (VR) 29/06/17 15.55 26.3 °C 54 % 16.3 °C 1001.6 hPa 6.0 Km/h SW 6.8 mm  16.3 °C 27.8 °C
Pian di Castagné (VR) 29/06/17 04.42 15.8 °C 85 % 13.3 °C 997.2 hPa 12.9 Km/h S 0.8 mm  14.7 °C 17.4 °C
Ponte San Nicolò (PD) 29/06/17 16.05 27.7 °C 53 % 17.3 °C 1001.9 hPa 19.3 Km/h SW 0.0 mm  16.9 °C 28.1 °C
Rifugio Bocca di Selva (VR) 29/06/17 16.10 11.4 °C 96 % 10.8 °C 1004.3 hPa 29.0 Km/h SSW 25.2 mm  7.8 °C 11.7 °C
Rifugio Fiori del Baldo (VR) 24/06/17 23.09 15.7 °C 100 % 15.7 °C 1025.3 hPa 19.1 Km/h W 0.0 mm  15.2 °C 19.3 °C
Rifugio Primaneve (VR) 29/06/17 16.04 9.7 °C 100 % 9.7 °C 1004.3 hPa 32.2 Km/h S 12.2 mm  6.7 °C 9.7 °C
Romano d'Ezzelino Fellette (VI) 29/06/17 16.10 26.0 °C 57 % 16.8 °C 1004.8 hPa 26.9 Km/h SSW 6.2 mm  15.3 °C 26.0 °C
S. Giovanni Ilarione2 (VR) 29/06/17 15.55 26.2 °C 55 % 16.5 °C 1001.3 hPa 6.4 Km/h SE 9.0 mm  15.9 °C 26.2 °C
S. Giovanni Lupatoto (VR) 29/06/17 15.50 30.1 °C 41 % 15.4 °C 1002.0 hPa 4.8 Km/h SW 0.2 mm  16.7 °C 30.2 °C
S. Lorenzo di Vittorio Veneto (TV) 28/06/17 20.15 18.9 °C 91 % 17.4 °C 999.1 hPa 6.4 Km/h ESE 53.1 mm  16.5 °C 26.9 °C
S. Maria Maddalena (RO) 29/06/17 16.05 29.2 °C 37 % 12.8 °C 1001.8 hPa 9.6 Km/h SSW 0.0 mm  16.9 °C 29.6 °C
S. Martino Lupari (PD) 29/06/17 15.50 26.8 °C 60 % 18.4 °C 1002.6 hPa 0.0 Km/h --- 6.6 mm  16.1 °C 26.9 °C
S. Rocco di Villabalzana (VI) 29/06/17 16.12 26.7 °C 57 % 17.2 °C 1001.5 hPa 6.5 Km/h E 7.6 mm  15.1 °C 26.7 °C
Salcedo (VI) 29/06/17 16.10 23.8 °C 55 % 14.2 °C 1003.5 hPa 17.6 Km/h SW 18.7 mm  13.8 °C 24.0 °C
San Nazario (VI) 29/06/17 15.58 25.7 °C 52 % 15.1 °C 1000.9 hPa 7.2 Km/h SE 30.5 mm  14.9 °C 27.0 °C
San Pietro in Cariano (VR) 29/06/17 16.09 25.0 °C 70 % 19.2 °C 1002.1 hPa 0.9 Km/h S 10.5 mm  16.2 °C 26.7 °C
Schio (VI) 29/06/17 15.40 26.1 °C 52 % 15.5 °C 1003.1 hPa 16.1 Km/h WSW 23.8 mm  15.4 °C 26.8 °C
Schio Monte Magré (VI) 29/06/17 16.10 24.3 °C 57 % 15.2 °C 0.0 hPa 1.6 Km/h NNW 21.4 mm  14.1 °C 25.1 °C
Selva di Cadore Santa Fosca (BL) 29/06/17 16.10 14.5 °C 75 % 10.1 °C 999.0 hPa 4.6 Km/h SE 0.0 mm  7.8 °C 15.2 °C
Selva di Progno (VR) 29/06/17 11.35 19.9 °C 70 % 14.3 °C 1001.2 hPa 6.4 Km/h ESE 11.2 mm  13.6 °C 20.0 °C
Soave Borgo Bassano (VR) 29/06/17 15.55 27.8 °C 54 % 17.7 °C 1002.0 hPa 8.0 Km/h WSW 4.4 mm  16.8 °C 28.3 °C
Sona Loc. La Colombara (VR) 29/06/17 16.00 25.8 °C 53 % 15.0 °C 998.5 hPa 6.0 Km/h S 3.6 mm  15.5 °C 26.2 °C
Tombolo (PD) 29/06/17 16.11 27.5 °C 52 % 16.8 °C 1002.2 hPa 9.1 Km/h SW 6.4 mm  16.2 °C 27.7 °C
Tregnago Loc. Centro (VR) 29/06/17 15.55 21.6 °C 67 % 15.2 °C 997.0 hPa 11.3 Km/h W 11.0 mm  13.7 °C 22.2 °C
Treviso (TV) 29/06/17 16.11 27.0 °C 50 % 15.7 °C 1002.7 hPa 13.0 Km/h SO 4.2 mm  15.2 °C 27.0 °C
Val Lastaro (VI) 29/06/17 06.00 10.3 °C 98 % 10.0 °C 999.4 hPa 0.0 Km/h SSE 37.4 mm  9.6 °C 10.6 °C
Valdobbiadene San Pietro di Barbozza (TV) 29/06/17 15.50 22.4 °C 70 % 16.7 °C 1001.9 hPa 9.7 Km/h WSW 5.2 mm  14.6 °C 22.6 °C
Valli del Pasubio loc. Gisbenti (VI) 29/06/17 16.10 24.2 °C 13 % -6.0 °C 958.0 hPa 3.1 Km/h E 13.7 mm  13.5 °C 24.4 °C
Verona Bgo Venezia (iz3sly) (VR) 29/06/17 15.59 27.9 °C 43 % 14.2 °C 1000.9 hPa 4.8 Km/h NW 7.6 mm  16.6 °C 27.9 °C
Verona L'Arena (VR) 29/06/17 16.11 28.2 °C 39 % 12.8 °C 1002.4 hPa 5.0 Km/h W 8.1 mm  17.3 °C 28.2 °C
Vestenanova (VR) 29/06/17 16.10 21.6 °C 61 % 13.8 °C 1013.6 hPa 7.2 Km/h NE 0.0 mm  13.9 °C 22.6 °C
Vicenza Campedello (VI) 29/06/17 16.15 27.1 °C 56 % 17.2 °C 1002.8 hPa 6.5 Km/h SE 9.2 mm  15.2 °C 27.1 °C
Vicenza Moracchino (VI) 29/06/17 16.11 27.8 °C 53 % 17.3 °C 1000.6 hPa 14.5 Km/h NW 3.4 mm  16.0 °C 28.0 °C
Vicenza Pecori Giraldi (VI) 29/06/17 16.10 29.1 °C 55 % 19.2 °C 1014.1 hPa 6.4 Km/h SSE 2.7 mm  16.8 °C 29.1 °C
Vicenza S. Lazzaro (VI) 29/06/17 16.11 27.8 °C 53 % 17.2 °C 1000.6 hPa 14.0 Km/h WSW 4.4 mm  16.4 °C 27.8 °C
Vicenza San Gaetano (VI) 29/06/17 16.10 27.9 °C 51 % 16.8 °C 1001.5 hPa 2.1 Km/h NW 3.6 mm  16.7 °C 28.0 °C
Vidor (TV) 29/06/17 15.56 25.7 °C 63 % 18.1 °C 1000.7 hPa 15.4 Km/h WSW 11.9 mm  15.2 °C 25.9 °C
Vigasio (VR) 29/06/17 15.40 28.9 °C 40 % 13.9 °C 1000.6 hPa 9.7 Km/h SSW 0.0 mm  16.9 °C 29.1 °C
Vittorio Veneto (TV) 29/06/17 16.00 24.1 °C 68 % 17.8 °C 1001.6 hPa 3.2 Km/h NE 4.3 mm  15.8 °C 24.2 °C
Vittorio Veneto Parco Fenderl (TV) 29/06/17 16.00 24.3 °C 62 % 16.6 °C 1003.3 hPa 1.6 Km/h NNE 7.9 mm  15.7 °C 24.3 °C
Volpago del Montello (TV) 29/06/17 15.45 24.7 °C 69 % 18.6 °C 1001.9 hPa 0.0 Km/h --- 12.4 mm  15.3 °C 24.7 °C
 
 
 
(*) = Precipitazioni nelle ultime 24h.
Dati non aggiornati nell'ultima ora.
   
In collaborazione con:
 
Top! Top!